Time;durP1;ratioP1;P1;durP2;ratioP2;P2;SDS_P1;SDS_P2;PMS_P1;PMS_P2;Temp;Humidity;BMP_temperature;BMP_pressure;BME280_temperature;BME280_humidity;BME280_pressure;Samples;Min_cycle;Max_cycle;Signal;HPM_P1;HPM_P2
2021/01/31 00:01:22;;;;;;;67.88;43.88;;;;;;;;;;6211003;28;20132;-77
2021/01/31 00:04:25;;;;;;;69.35;44.35;;;;;;;;;;6207851;28;20046;-76
2021/01/31 00:07:26;;;;;;;65.07;43.05;;;;;;;;;;6206689;28;20053;-76
2021/01/31 00:10:30;;;;;;;65.70;41.80;;;;;;;;;;6211598;28;20711;-76
2021/01/31 00:13:31;;;;;;;66.55;41.95;;;;;;;;;;6206170;28;20056;-77
2021/01/31 00:16:32;;;;;;;73.47;46.00;;;;;;;;;;6204526;28;20069;-76
2021/01/31 00:19:33;;;;;;;69.60;42.88;;;;;;;;;;6210058;28;20050;-76
2021/01/31 00:22:34;;;;;;;63.42;42.30;;;;;;;;;;6206165;28;20068;-77
2021/01/31 00:25:36;;;;;;;62.95;42.30;;;;;;;;;;6209724;28;20096;-77
2021/01/31 00:28:37;;;;;;;66.22;43.10;;;;;;;;;;6214950;28;20048;-77
2021/01/31 00:31:38;;;;;;;70.10;44.10;;;;;;;;;;6219087;28;20085;-77
2021/01/31 00:34:39;;;;;;;64.68;41.60;;;;;;;;;;6216025;28;20056;-77
2021/01/31 00:37:40;;;;;;;64.85;42.08;;;;;;;;;;6213531;28;20725;-77
2021/01/31 00:40:43;;;;;;;67.22;42.78;;;;;;;;;;6209030;28;20049;-77
2021/01/31 00:43:44;;;;;;;67.13;43.13;;;;;;;;;;6217384;28;20519;-77
2021/01/31 00:46:45;;;;;;;63.83;42.72;;;;;;;;;;6213273;28;20053;-78
2021/01/31 00:49:48;;;;;;;67.13;43.35;;;;;;;;;;6213919;28;20066;-77
2021/01/31 00:52:49;;;;;;;62.80;42.53;;;;;;;;;;6213212;28;20164;-76
2021/01/31 00:55:51;;;;;;;66.18;43.35;;;;;;;;;;6209980;28;20477;-79
2021/01/31 00:58:52;;;;;;;64.57;41.70;;;;;;;;;;6204653;28;20073;-77
2021/01/31 01:01:53;;;;;;;64.75;41.70;;;;;;;;;;6208036;28;20838;-77
2021/01/31 01:04:54;;;;;;;65.05;42.83;;;;;;;;;;6216678;28;20510;-76
2021/01/31 01:07:55;;;;;;;66.55;42.67;;;;;;;;;;6218063;28;20052;-77
2021/01/31 01:10:57;;;;;;;66.32;43.17;;;;;;;;;;6213568;28;20053;-76
2021/01/31 01:13:58;;;;;;;77.95;47.10;;;;;;;;;;6209815;28;20129;-77
2021/01/31 01:17:00;;;;;;;127.10;70.40;;;;;;;;;;6210724;28;20056;-80
2021/01/31 01:20:01;;;;;;;167.05;93.63;;;;;;;;;;6208332;28;20412;-75
2021/01/31 01:23:03;;;;;;;128.45;73.45;;;;;;;;;;6205061;28;20575;-76
2021/01/31 01:26:04;;;;;;;77.95;48.13;;;;;;;;;;6205451;28;20056;-76
2021/01/31 01:29:05;;;;;;;66.90;43.60;;;;;;;;;;6213290;28;20408;-76
2021/01/31 01:32:06;;;;;;;66.30;42.60;;;;;;;;;;6218312;28;20132;-76
2021/01/31 01:35:09;;;;;;;67.28;42.95;;;;;;;;;;6226547;28;20054;-77
2021/01/31 01:38:12;;;;;;;64.35;41.83;;;;;;;;;;6208201;28;20066;-76
2021/01/31 01:41:15;;;;;;;61.78;40.15;;;;;;;;;;6209239;28;20084;-76
2021/01/31 01:44:16;;;;;;;66.03;40.07;;;;;;;;;;6220102;28;20133;-76
2021/01/31 01:47:20;;;;;;;66.57;41.10;;;;;;;;;;6212188;28;20566;-76
2021/01/31 01:50:27;;;;;;;63.60;41.42;;;;;;;;;;6210608;28;20054;-78
2021/01/31 01:53:28;;;;;;;65.45;41.60;;;;;;;;;;6210250;28;20493;-76
2021/01/31 01:56:35;;;;;;;62.50;40.63;;;;;;;;;;6217495;28;20046;-76
2021/01/31 01:59:38;;;;;;;62.63;40.40;;;;;;;;;;6208880;28;20077;-76
2021/01/31 02:02:41;;;;;;;63.72;42.92;;;;;;;;;;6509384;22;20081;-75
2021/01/31 02:05:44;;;;;;;62.97;40.35;;;;;;;;;;6204191;28;20050;-71
2021/01/31 02:08:45;;;;;;;66.78;41.17;;;;;;;;;;6222995;28;20042;-71
2021/01/31 02:11:47;;;;;;;62.25;39.80;;;;;;;;;;6223419;28;20052;-71
2021/01/31 02:14:50;;;;;;;62.90;38.75;;;;;;;;;;6213548;28;20507;-73
2021/01/31 02:18:08;;;;;;;63.08;39.53;;;;;;;;;;6206987;28;20064;-74
2021/01/31 02:21:37;;;;;;;61.08;38.72;;;;;;;;;;6205860;28;20050;-72
2021/01/31 02:24:51;;;;;;;59.80;38.35;;;;;;;;;;6216659;28;20048;-72
2021/01/31 02:28:27;;;;;;;57.88;37.78;;;;;;;;;;6213620;28;20060;-71
2021/01/31 02:32:03;;;;;;;56.72;36.78;;;;;;;;;;6198355;28;20508;-71
2021/01/31 02:35:08;;;;;;;58.67;36.47;;;;;;;;;;6206266;28;20053;-71
2021/01/31 02:38:13;;;;;;;57.58;37.80;;;;;;;;;;6198243;28;20126;-72
2021/01/31 02:41:20;;;;;;;59.55;38.00;;;;;;;;;;6211692;28;20061;-72
2021/01/31 02:44:24;;;;;;;62.13;39.08;;;;;;;;;;6214117;28;20587;-71
2021/01/31 02:47:26;;;;;;;59.75;39.10;;;;;;;;;;6211071;28;20046;-73
2021/01/31 02:50:30;;;;;;;63.50;40.05;;;;;;;;;;6214289;28;20123;-73
2021/01/31 02:53:34;;;;;;;65.93;40.70;;;;;;;;;;6218501;28;20050;-72
2021/01/31 02:56:38;;;;;;;62.07;38.53;;;;;;;;;;6217353;28;20069;-72
2021/01/31 02:59:42;;;;;;;55.97;36.33;;;;;;;;;;6212286;28;20049;-74
2021/01/31 03:02:51;;;;;;;54.72;36.25;;;;;;;;;;6216105;28;20056;-72
2021/01/31 03:05:54;;;;;;;58.92;36.25;;;;;;;;;;6219592;28;20042;-72
2021/01/31 03:08:58;;;;;;;59.97;37.22;;;;;;;;;;6213112;28;20156;-74
2021/01/31 03:12:02;;;;;;;55.90;36.00;;;;;;;;;;6205717;28;20129;-72
2021/01/31 03:15:08;;;;;;;56.67;35.95;;;;;;;;;;6218006;28;20077;-72
2021/01/31 03:18:12;;;;;;;51.35;33.95;;;;;;;;;;6212212;28;20042;-71
2021/01/31 03:21:17;;;;;;;55.03;35.53;;;;;;;;;;6207104;28;20053;-71
2021/01/31 03:24:22;;;;;;;54.70;34.53;;;;;;;;;;6205608;28;20041;-72
2021/01/31 03:27:28;;;;;;;50.90;33.20;;;;;;;;;;6203094;28;20068;-72
2021/01/31 03:30:30;;;;;;;51.55;31.98;;;;;;;;;;6206176;28;20058;-72
2021/01/31 03:33:36;;;;;;;51.42;32.58;;;;;;;;;;6211354;28;20042;-74
2021/01/31 03:36:43;;;;;;;52.30;33.67;;;;;;;;;;6203853;28;20046;-75
2021/01/31 03:39:45;;;;;;;48.97;32.70;;;;;;;;;;6193955;28;20621;-72
2021/01/31 03:42:46;;;;;;;50.63;32.90;;;;;;;;;;6207309;28;20050;-72
2021/01/31 03:46:01;;;;;;;49.30;33.13;;;;;;;;;;6204625;28;20059;-71
2021/01/31 03:49:06;;;;;;;49.15;31.50;;;;;;;;;;6203611;28;20043;-71
2021/01/31 03:52:08;;;;;;;48.63;31.30;;;;;;;;;;6204070;28;20046;-71
2021/01/31 03:55:10;;;;;;;48.47;30.90;;;;;;;;;;6206070;28;20054;-71
2021/01/31 03:58:13;;;;;;;50.42;29.77;;;;;;;;;;6202280;28;20046;-72
2021/01/31 04:01:14;;;;;;;46.33;30.17;;;;;;;;;;6201512;28;20050;-71
2021/01/31 04:04:18;;;;;;;46.47;29.55;;;;;;;;;;6201303;28;20100;-72
2021/01/31 04:07:22;;;;;;;46.72;29.50;;;;;;;;;;6208293;28;20547;-72
2021/01/31 04:10:23;;;;;;;49.50;30.30;;;;;;;;;;6210925;28;20050;-72
2021/01/31 04:13:25;;;;;;;45.08;28.90;;;;;;;;;;6212486;28;20054;-71
2021/01/31 04:16:26;;;;;;;46.42;29.02;;;;;;;;;;6210809;28;20057;-74
2021/01/31 04:19:27;;;;;;;45.30;29.48;;;;;;;;;;6203334;28;20052;-71
2021/01/31 04:22:29;;;;;;;49.13;31.25;;;;;;;;;;6219998;28;20042;-75
2021/01/31 04:25:31;;;;;;;44.90;27.92;;;;;;;;;;6206063;28;20049;-71
2021/01/31 04:28:32;;;;;;;44.20;28.00;;;;;;;;;;6208700;28;20485;-71
2021/01/31 04:31:33;;;;;;;45.30;27.75;;;;;;;;;;6206454;28;20050;-72
2021/01/31 04:34:34;;;;;;;44.42;29.33;;;;;;;;;;6209784;28;20157;-72
2021/01/31 04:37:36;;;;;;;43.45;28.75;;;;;;;;;;6217676;28;20046;-72
2021/01/31 04:40:37;;;;;;;43.55;28.08;;;;;;;;;;6207111;28;20121;-71
2021/01/31 04:43:38;;;;;;;51.33;31.48;;;;;;;;;;6210781;28;20054;-71
2021/01/31 04:46:43;;;;;;;52.95;32.47;;;;;;;;;;6215450;28;20137;-71
2021/01/31 04:50:05;;;;;;;54.22;33.95;;;;;;;;;;6208245;28;20551;-71
2021/01/31 04:53:17;;;;;;;51.45;32.85;;;;;;;;;;6200871;28;20046;-71
2021/01/31 04:56:26;;;;;;;55.70;34.42;;;;;;;;;;6198998;28;20478;-71
2021/01/31 04:59:29;;;;;;;54.92;34.30;;;;;;;;;;6209040;28;20612;-74
2021/01/31 05:02:33;;;;;;;57.47;35.65;;;;;;;;;;6203188;28;20065;-71
2021/01/31 05:05:36;;;;;;;63.27;36.77;;;;;;;;;;6211174;28;20665;-71
2021/01/31 05:08:38;;;;;;;57.55;35.92;;;;;;;;;;6209992;28;20060;-71
2021/01/31 05:11:44;;;;;;;57.35;36.75;;;;;;;;;;6212272;28;20050;-71
2021/01/31 05:15:01;;;;;;;58.08;34.65;;;;;;;;;;6202793;28;20164;-72
2021/01/31 05:18:02;;;;;;;53.47;34.50;;;;;;;;;;6207572;28;20046;-70
2021/01/31 05:21:06;;;;;;;56.88;36.28;;;;;;;;;;6211743;28;20100;-72
2021/01/31 05:24:12;;;;;;;56.72;36.53;;;;;;;;;;6201890;28;20061;-72
2021/01/31 05:27:17;;;;;;;59.65;37.08;;;;;;;;;;6205421;28;20066;-71
2021/01/31 05:30:19;;;;;;;58.75;37.33;;;;;;;;;;6210006;28;20056;-71
2021/01/31 05:33:21;;;;;;;61.13;40.00;;;;;;;;;;6203849;28;20172;-71
2021/01/31 05:36:24;;;;;;;60.05;38.92;;;;;;;;;;6211611;28;20670;-71
2021/01/31 05:39:35;;;;;;;60.95;38.25;;;;;;;;;;6210489;28;20046;-71
2021/01/31 05:42:40;;;;;;;62.67;40.08;;;;;;;;;;6201965;28;20837;-71
2021/01/31 05:45:44;;;;;;;62.60;40.25;;;;;;;;;;6199735;28;20068;-71
2021/01/31 05:48:45;;;;;;;60.13;38.73;;;;;;;;;;6205232;28;20158;-73
2021/01/31 05:51:46;;;;;;;61.53;39.50;;;;;;;;;;6206577;28;20050;-71
2021/01/31 05:54:50;;;;;;;60.17;39.10;;;;;;;;;;6210549;28;20058;-71
2021/01/31 05:57:51;;;;;;;63.75;39.75;;;;;;;;;;6204913;28;20062;-71
2021/01/31 06:01:05;;;;;;;65.30;39.67;;;;;;;;;;6199478;28;20050;-71
2021/01/31 06:04:10;;;;;;;60.72;38.15;;;;;;;;;;6201378;28;20893;-71
2021/01/31 06:07:13;;;;;;;61.30;38.95;;;;;;;;;;6200728;28;20129;-70
2021/01/31 06:10:16;;;;;;;62.10;39.47;;;;;;;;;;6203733;28;20055;-75
2021/01/31 06:13:21;;;;;;;61.27;38.83;;;;;;;;;;6205459;28;20042;-72
2021/01/31 06:16:21;;;;;;;;;;;;;;;;;;6199699;28;20133;-71
2021/01/31 06:19:25;;;;;;;65.72;37.53;;;;;;;;;;6198434;28;19922;-72
2021/01/31 06:22:37;;;;;;;62.55;40.65;;;;;;;;;;6201467;28;20542;-71
2021/01/31 06:25:40;;;;;;;60.95;38.97;;;;;;;;;;6203518;28;20052;-71
2021/01/31 06:28:44;;;;;;;64.63;38.70;;;;;;;;;;6212983;28;20041;-71
2021/01/31 06:31:51;;;;;;;62.67;38.55;;;;;;;;;;6208680;28;20056;-71
2021/01/31 06:34:58;;;;;;;63.28;38.28;;;;;;;;;;6208093;28;20100;-72
2021/01/31 06:38:10;;;;;;;60.65;38.47;;;;;;;;;;6211618;28;20056;-72
2021/01/31 06:41:19;;;;;;;62.05;38.67;;;;;;;;;;6220614;28;20120;-71
2021/01/31 06:44:27;;;;;;;57.78;37.33;;;;;;;;;;6208754;28;20061;-71
2021/01/31 06:47:40;;;;;;;57.78;38.22;;;;;;;;;;6206328;28;20056;-73
2021/01/31 06:50:51;;;;;;;56.97;36.35;;;;;;;;;;6208313;28;20746;-74
2021/01/31 06:54:13;;;;;;;56.38;36.53;;;;;;;;;;6215584;28;20153;-70
2021/01/31 06:57:26;;;;;;;58.83;37.22;;;;;;;;;;6215052;28;20164;-71
2021/01/31 07:00:36;;;;;;;60.33;37.33;;;;;;;;;;6218374;28;20049;-72
2021/01/31 07:04:18;;;;;;;54.90;36.58;;;;;;;;;;6211004;28;20586;-72
2021/01/31 07:07:47;;;;;;;53.55;34.15;;;;;;;;;;6204415;28;20077;-72
2021/01/31 07:11:06;;;;;;;56.80;34.58;;;;;;;;;;6205386;28;20042;-71
2021/01/31 07:14:26;;;;;;;55.17;32.67;;;;;;;;;;6205951;28;20439;-72
2021/01/31 07:17:32;;;;;;;55.00;33.75;;;;;;;;;;6204401;28;20050;-74
2021/01/31 07:20:38;;;;;;;55.67;33.65;;;;;;;;;;6204930;28;20056;-73
2021/01/31 07:23:40;;;;;;;50.72;33.25;;;;;;;;;;6213155;28;20133;-75
2021/01/31 07:26:45;;;;;;;56.70;35.58;;;;;;;;;;6197793;28;20055;-72
2021/01/31 07:30:03;;;;;;;53.85;34.53;;;;;;;;;;6204209;28;20087;-73
2021/01/31 07:33:19;;;;;;;54.85;34.60;;;;;;;;;;6204309;28;20042;-75
2021/01/31 07:36:23;;;;;;;57.88;36.17;;;;;;;;;;6202871;28;20138;-71
2021/01/31 07:39:28;;;;;;;55.40;35.55;;;;;;;;;;6207630;28;20053;-73
2021/01/31 07:42:31;;;;;;;57.63;35.75;;;;;;;;;;6204110;28;20056;-72
2021/01/31 07:45:33;;;;;;;59.78;37.30;;;;;;;;;;6199245;28;20046;-71
2021/01/31 07:48:55;;;;;;;58.72;35.63;;;;;;;;;;6213408;28;20084;-73
2021/01/31 07:52:06;;;;;;;56.58;35.17;;;;;;;;;;6214024;28;20042;-71
2021/01/31 07:55:09;;;;;;;55.33;34.88;;;;;;;;;;6222931;28;20062;-72
2021/01/31 07:58:40;;;;;;;56.67;34.75;;;;;;;;;;6206994;28;20050;-71
2021/01/31 08:01:48;;;;;;;58.63;36.10;;;;;;;;;;6209610;28;20085;-72
2021/01/31 08:04:57;;;;;;;54.19;34.32;;;;;;;;;;5760133;28;10268804;-72
2021/01/31 08:08:00;;;;;;;54.85;34.13;;;;;;;;;;6211536;28;20042;-72
2021/01/31 08:11:03;;;;;;;52.30;32.93;;;;;;;;;;6206219;28;20138;-72
2021/01/31 08:14:04;;;;;;;53.70;33.22;;;;;;;;;;6207068;28;20084;-74
2021/01/31 08:17:06;;;;;;;56.40;34.63;;;;;;;;;;6204459;28;20297;-72
2021/01/31 08:20:34;;;;;;;53.25;35.85;;;;;;;;;;6204079;28;20056;-73
2021/01/31 08:23:46;;;;;;;56.00;34.80;;;;;;;;;;6206459;28;20092;-72
2021/01/31 08:26:48;;;;;;;54.90;36.13;;;;;;;;;;6204208;28;20507;-75
2021/01/31 08:30:12;;;;;;;49.50;33.15;;;;;;;;;;6205991;28;20148;-72
2021/01/31 08:33:27;;;;;;;46.97;31.73;;;;;;;;;;6198378;28;20050;-72
2021/01/31 08:36:29;;;;;;;47.58;30.25;;;;;;;;;;6196720;28;20501;-72
2021/01/31 08:39:31;;;;;;;47.20;33.13;;;;;;;;;;6201567;28;20621;-75
2021/01/31 08:42:32;;;;;;;42.78;29.08;;;;;;;;;;6211541;28;20057;-73
2021/01/31 08:45:42;;;;;;;46.38;30.70;;;;;;;;;;6207038;28;20077;-72
2021/01/31 08:48:50;;;;;;;45.67;30.42;;;;;;;;;;6202189;28;20735;-72
2021/01/31 08:51:56;;;;;;;46.67;29.67;;;;;;;;;;6209997;28;20061;-72
2021/01/31 08:54:59;;;;;;;43.97;30.10;;;;;;;;;;6201338;28;20062;-70
2021/01/31 08:58:01;;;;;;;40.00;28.58;;;;;;;;;;6212820;28;20050;-71
2021/01/31 09:01:02;;;;;;;39.30;27.77;;;;;;;;;;6196650;28;20042;-72
2021/01/31 09:04:07;;;;;;;40.25;27.67;;;;;;;;;;6204006;28;20052;-75
2021/01/31 09:07:08;;;;;;;39.05;27.92;;;;;;;;;;6205584;28;20053;-73
2021/01/31 09:10:14;;;;;;;36.78;26.48;;;;;;;;;;6201881;28;20489;-73
2021/01/31 09:13:18;;;;;;;36.55;25.67;;;;;;;;;;6200271;28;20609;-74
2021/01/31 09:16:22;;;;;;;36.17;26.10;;;;;;;;;;6204574;28;20062;-73
2021/01/31 09:19:24;;;;;;;35.22;25.02;;;;;;;;;;6208238;28;20058;-73
2021/01/31 09:22:25;;;;;;;38.08;25.85;;;;;;;;;;6207321;28;20054;-73
2021/01/31 09:25:27;;;;;;;34.17;25.27;;;;;;;;;;6201759;28;20042;-73
2021/01/31 09:28:28;;;;;;;32.60;25.50;;;;;;;;;;6203743;28;20492;-75
2021/01/31 09:31:30;;;;;;;35.72;25.35;;;;;;;;;;6203940;28;20438;-73
2021/01/31 09:34:32;;;;;;;35.05;25.52;;;;;;;;;;6206807;28;20096;-72
2021/01/31 09:37:34;;;;;;;35.50;25.05;;;;;;;;;;6208972;28;20053;-73
2021/01/31 09:40:36;;;;;;;32.95;23.67;;;;;;;;;;6202998;28;20048;-72
2021/01/31 09:43:37;;;;;;;33.47;23.23;;;;;;;;;;6208018;28;20053;-74
2021/01/31 09:46:39;;;;;;;35.05;24.08;;;;;;;;;;6208858;28;20054;-73
2021/01/31 09:49:42;;;;;;;32.50;23.85;;;;;;;;;;6201199;28;20124;-73
2021/01/31 09:52:43;;;;;;;33.67;23.33;;;;;;;;;;6207522;28;20553;-74
2021/01/31 09:55:45;;;;;;;29.20;21.58;;;;;;;;;;6207586;28;20384;-73
2021/01/31 09:58:47;;;;;;;34.90;23.02;;;;;;;;;;6199567;28;20043;-72
2021/01/31 10:01:49;;;;;;;32.05;23.17;;;;;;;;;;6203786;28;20148;-73
2021/01/31 10:04:55;;;;;;;32.53;24.20;;;;;;;;;;6213185;28;20054;-74
2021/01/31 10:08:03;;;;;;;32.63;22.45;;;;;;;;;;5518528;28;10000342;-73
2021/01/31 10:11:23;;;;;;;34.00;22.75;;;;;;;;;;6211800;28;20057;-74
2021/01/31 10:14:42;;;;;;;32.80;21.90;;;;;;;;;;6204993;28;20054;-75
2021/01/31 10:17:45;;;;;;;28.40;19.58;;;;;;;;;;6209869;28;20042;-74
2021/01/31 10:20:47;;;;;;;25.67;18.45;;;;;;;;;;6210549;28;20046;-74
2021/01/31 10:23:49;;;;;;;29.45;20.05;;;;;;;;;;6202479;28;20038;-74
2021/01/31 10:26:50;;;;;;;35.13;24.67;;;;;;;;;;6205553;28;20048;-74
2021/01/31 10:29:53;;;;;;;37.28;26.30;;;;;;;;;;6213509;28;20050;-74
2021/01/31 10:32:55;;;;;;;36.42;27.85;;;;;;;;;;6213251;28;20091;-73
2021/01/31 10:35:56;;;;;;;35.42;26.25;;;;;;;;;;6200991;28;20042;-73
2021/01/31 10:39:00;;;;;;;32.40;23.80;;;;;;;;;;6202253;28;20053;-74
2021/01/31 10:42:01;;;;;;;34.60;26.65;;;;;;;;;;6213348;28;20176;-74
2021/01/31 10:45:05;;;;;;;33.15;25.40;;;;;;;;;;6204162;28;20138;-73
2021/01/31 10:48:06;;;;;;;32.17;26.40;;;;;;;;;;6202889;28;20076;-71
2021/01/31 10:51:08;;;;;;;32.08;25.13;;;;;;;;;;6216107;28;20575;-71
2021/01/31 10:54:09;;;;;;;27.40;21.55;;;;;;;;;;6207375;28;20751;-72
2021/01/31 10:57:10;;;;;;;26.55;20.60;;;;;;;;;;6199506;28;20138;-71
2021/01/31 11:00:13;;;;;;;26.58;21.73;;;;;;;;;;6208366;28;20056;-72
2021/01/31 11:03:14;;;;;;;26.48;20.50;;;;;;;;;;6206485;28;20426;-73
2021/01/31 11:06:16;;;;;;;28.55;21.90;;;;;;;;;;6206708;28;20180;-72
2021/01/31 11:09:17;;;;;;;26.33;21.13;;;;;;;;;;6212397;28;20053;-73
2021/01/31 11:12:19;;;;;;;23.88;20.52;;;;;;;;;;6207463;28;20132;-75
2021/01/31 11:15:20;;;;;;;22.52;18.10;;;;;;;;;;6203851;28;20127;-73
2021/01/31 11:18:21;;;;;;;22.48;20.00;;;;;;;;;;6199769;28;20575;-73
2021/01/31 11:21:25;;;;;;;21.25;17.42;;;;;;;;;;6200229;28;20136;-73
2021/01/31 11:24:26;;;;;;;;;;;;;;;;;;6201954;28;20101;-73
2021/01/31 11:27:27;;;;;;;16.42;14.15;;;;;;;;;;6207778;28;20360;-73
2021/01/31 11:30:29;;;;;;;16.88;14.35;;;;;;;;;;6205308;28;20049;-73
2021/01/31 11:33:30;;;;;;;17.42;14.98;;;;;;;;;;6205265;28;20069;-73
2021/01/31 11:36:31;;;;;;;20.42;16.50;;;;;;;;;;6204243;28;20054;-71
2021/01/31 11:39:32;;;;;;;18.38;15.60;;;;;;;;;;6205901;28;20048;-72
2021/01/31 11:42:33;;;;;;;16.95;14.45;;;;;;;;;;6206628;28;20057;-71
2021/01/31 11:45:34;;;;;;;16.17;14.00;;;;;;;;;;6206906;28;20049;-72
2021/01/31 11:48:36;;;;;;;14.30;12.60;;;;;;;;;;6197635;28;20061;-71
2021/01/31 11:51:37;;;;;;;15.40;13.52;;;;;;;;;;6210946;28;20069;-71
2021/01/31 11:54:38;;;;;;;12.43;10.48;;;;;;;;;;6206231;28;20716;-70
2021/01/31 11:57:40;;;;;;;13.98;10.95;;;;;;;;;;6198184;28;20048;-70
2021/01/31 12:00:41;;;;;;;13.13;11.20;;;;;;;;;;6205640;28;21667;-69
2021/01/31 12:03:43;;;;;;;15.10;11.77;;;;;;;;;;6197789;28;20046;-70
2021/01/31 12:06:44;;;;;;;12.88;10.07;;;;;;;;;;6198080;28;20140;-70
2021/01/31 12:09:45;;;;;;;24.42;15.00;;;;;;;;;;6192156;28;20046;-71
2021/01/31 12:12:47;;;;;;;14.35;12.20;;;;;;;;;;6203225;28;20053;-70
2021/01/31 12:15:48;;;;;;;18.48;14.57;;;;;;;;;;6208175;28;20192;-70
2021/01/31 12:18:49;;;;;;;11.70;9.35;;;;;;;;;;6201274;28;20253;-70
2021/01/31 12:21:51;;;;;;;10.85;8.70;;;;;;;;;;6203392;28;20702;-74
2021/01/31 12:24:52;;;;;;;10.80;9.05;;;;;;;;;;6205795;28;20184;-71
2021/01/31 12:27:54;;;;;;;10.35;8.85;;;;;;;;;;6207253;28;20125;-76
2021/01/31 12:30:56;;;;;;;14.10;10.20;;;;;;;;;;5510287;28;10000132;-73
2021/01/31 12:33:57;;;;;;;11.73;9.27;;;;;;;;;;6201129;28;20052;-72
2021/01/31 12:36:59;;;;;;;9.68;8.48;;;;;;;;;;6202190;28;20634;-70
2021/01/31 12:40:01;;;;;;;10.25;7.97;;;;;;;;;;6203728;28;20072;-69
2021/01/31 12:43:02;;;;;;;10.65;8.50;;;;;;;;;;6200304;28;20056;-71
2021/01/31 12:46:03;;;;;;;10.07;8.88;;;;;;;;;;6205754;28;20470;-72
2021/01/31 12:49:04;;;;;;;10.27;8.57;;;;;;;;;;6204356;28;20052;-71
2021/01/31 12:52:06;;;;;;;9.35;7.32;;;;;;;;;;6205301;28;20057;-72
2021/01/31 12:55:09;;;;;;;8.50;7.30;;;;;;;;;;6199732;28;20057;-71
2021/01/31 12:58:10;;;;;;;9.65;8.05;;;;;;;;;;6203923;28;20054;-71
2021/01/31 13:01:11;;;;;;;9.52;7.95;;;;;;;;;;6201419;28;20058;-73
2021/01/31 13:04:13;;;;;;;8.40;6.75;;;;;;;;;;6204312;28;20133;-74
2021/01/31 13:07:15;;;;;;;10.65;7.40;;;;;;;;;;6208895;28;20416;-72
2021/01/31 13:10:17;;;;;;;7.53;6.25;;;;;;;;;;6208501;28;20133;-71
2021/01/31 13:13:18;;;;;;;8.68;7.00;;;;;;;;;;6199299;28;20052;-73
2021/01/31 13:16:19;;;;;;;8.85;6.80;;;;;;;;;;6207666;28;20579;-74
2021/01/31 13:19:20;;;;;;;7.18;6.30;;;;;;;;;;6205678;28;20054;-73
2021/01/31 13:22:22;;;;;;;6.63;5.45;;;;;;;;;;6200116;28;20077;-71
2021/01/31 13:25:23;;;;;;;7.35;6.18;;;;;;;;;;6209936;28;20042;-72
2021/01/31 13:28:24;;;;;;;8.85;6.53;;;;;;;;;;6205898;28;20073;-73
2021/01/31 13:31:26;;;;;;;7.57;6.00;;;;;;;;;;6208360;28;20048;-73
2021/01/31 13:34:30;;;;;;;8.70;6.38;;;;;;;;;;6207861;28;20149;-72
2021/01/31 13:37:32;;;;;;;9.40;6.38;;;;;;;;;;6203094;28;20428;-72
2021/01/31 13:40:33;;;;;;;7.28;5.53;;;;;;;;;;6214429;28;20418;-73
2021/01/31 13:43:34;;;;;;;6.72;5.50;;;;;;;;;;6210178;28;20053;-73
2021/01/31 13:46:35;;;;;;;7.43;5.43;;;;;;;;;;6215372;28;20162;-72
2021/01/31 13:49:36;;;;;;;6.50;5.00;;;;;;;;;;6213694;28;20526;-72
2021/01/31 13:52:38;;;;;;;6.05;5.30;;;;;;;;;;6214934;28;20054;-72
2021/01/31 13:55:39;;;;;;;7.75;6.45;;;;;;;;;;6209571;28;20052;-71
2021/01/31 13:58:40;;;;;;;8.65;5.80;;;;;;;;;;6204942;28;20050;-72
2021/01/31 14:01:41;;;;;;;9.18;6.97;;;;;;;;;;6206985;28;20088;-72
2021/01/31 14:04:43;;;;;;;7.22;5.30;;;;;;;;;;6199387;28;20497;-73
2021/01/31 14:07:45;;;;;;;8.05;6.38;;;;;;;;;;6217174;28;20119;-74
2021/01/31 14:10:46;;;;;;;8.30;5.60;;;;;;;;;;6205990;28;20050;-73
2021/01/31 14:13:47;;;;;;;6.75;6.05;;;;;;;;;;5861527;28;9999720;-74
2021/01/31 14:16:48;;;;;;;9.35;6.15;;;;;;;;;;6207186;28;20061;-75
2021/01/31 14:19:50;;;;;;;8.52;6.32;;;;;;;;;;6200451;28;20038;-75
2021/01/31 14:22:53;;;;;;;7.38;6.10;;;;;;;;;;6210357;28;20042;-72
2021/01/31 14:25:54;;;;;;;8.77;7.18;;;;;;;;;;6210715;28;20038;-72
2021/01/31 14:28:55;;;;;;;7.93;6.85;;;;;;;;;;6195429;28;20438;-72
2021/01/31 14:31:56;;;;;;;7.88;6.97;;;;;;;;;;6214385;28;20396;-73
2021/01/31 14:34:57;;;;;;;8.90;7.10;;;;;;;;;;6213357;28;20288;-73
2021/01/31 14:38:00;;;;;;;7.90;6.45;;;;;;;;;;6207761;28;20050;-73
2021/01/31 14:41:01;;;;;;;9.32;6.90;;;;;;;;;;6212441;28;20050;-73
2021/01/31 14:44:02;;;;;;;7.53;6.35;;;;;;;;;;6211526;28;20213;-71
2021/01/31 14:47:03;;;;;;;6.85;6.07;;;;;;;;;;6208138;28;20058;-71
2021/01/31 14:50:05;;;;;;;6.72;5.97;;;;;;;;;;6209623;28;20052;-73
2021/01/31 14:53:07;;;;;;;8.05;5.70;;;;;;;;;;6206025;28;20041;-73
2021/01/31 14:56:08;;;;;;;6.35;5.57;;;;;;;;;;6204485;28;20149;-73
2021/01/31 14:59:09;;;;;;;6.70;5.63;;;;;;;;;;6212882;28;20046;-73
2021/01/31 15:02:10;;;;;;;6.85;5.35;;;;;;;;;;6209325;28;20060;-71
2021/01/31 15:05:12;;;;;;;5.85;5.00;;;;;;;;;;6206147;28;20150;-72
2021/01/31 15:08:15;;;;;;;5.80;5.07;;;;;;;;;;6202182;28;20042;-72
2021/01/31 15:11:16;;;;;;;7.15;5.05;;;;;;;;;;6207564;28;20070;-70
2021/01/31 15:14:17;;;;;;;8.30;7.05;;;;;;;;;;6208725;28;20057;-71
2021/01/31 15:17:18;;;;;;;8.32;6.85;;;;;;;;;;6197073;28;20097;-70
2021/01/31 15:20:23;;;;;;;7.93;6.20;;;;;;;;;;6201743;28;20137;-71
2021/01/31 15:23:26;;;;;;;7.78;6.93;;;;;;;;;;6195383;28;20068;-71
2021/01/31 15:26:27;;;;;;;8.50;7.55;;;;;;;;;;6210360;28;20623;-69
2021/01/31 15:29:28;;;;;;;10.52;7.43;;;;;;;;;;6190211;28;20141;-69
2021/01/31 15:32:30;;;;;;;9.38;7.72;;;;;;;;;;6197803;28;20050;-70
2021/01/31 15:35:31;;;;;;;10.40;8.18;;;;;;;;;;6183882;28;20064;-69
2021/01/31 15:38:33;;;;;;;12.15;8.55;;;;;;;;;;6195604;28;20153;-70
2021/01/31 15:41:34;;;;;;;11.60;9.00;;;;;;;;;;6204854;28;20059;-72
2021/01/31 15:44:35;;;;;;;10.13;8.50;;;;;;;;;;6211164;28;20104;-72
2021/01/31 15:47:36;;;;;;;12.73;9.80;;;;;;;;;;6207513;28;20623;-71
2021/01/31 15:50:38;;;;;;;10.95;9.30;;;;;;;;;;6204901;28;20129;-69
2021/01/31 15:53:40;;;;;;;11.55;9.25;;;;;;;;;;6208664;28;20121;-73
2021/01/31 15:56:41;;;;;;;12.27;9.45;;;;;;;;;;6209308;28;20042;-70
2021/01/31 15:59:42;;;;;;;11.82;8.93;;;;;;;;;;6188571;28;20209;-72
2021/01/31 16:02:43;;;;;;;12.30;8.90;;;;;;;;;;6198288;28;20121;-71
2021/01/31 16:05:45;;;;;;;11.27;8.68;;;;;;;;;;6207870;28;20060;-72
2021/01/31 16:08:46;;;;;;;11.75;9.35;;;;;;;;;;6217162;28;20157;-72
2021/01/31 16:11:48;;;;;;;12.88;9.50;;;;;;;;;;6199060;28;20050;-72
2021/01/31 16:14:49;;;;;;;11.85;8.88;;;;;;;;;;6199656;28;20054;-72
2021/01/31 16:17:50;;;;;;;13.73;9.00;;;;;;;;;;6198883;28;20050;-72
2021/01/31 16:20:52;;;;;;;10.23;8.48;;;;;;;;;;6199356;28;20050;-72
2021/01/31 16:23:53;;;;;;;11.48;8.50;;;;;;;;;;6201884;28;20037;-74
2021/01/31 16:26:54;;;;;;;11.60;8.90;;;;;;;;;;6202739;28;20461;-72
2021/01/31 16:29:56;;;;;;;10.70;8.10;;;;;;;;;;6208635;28;20141;-75
2021/01/31 16:32:57;;;;;;;12.75;9.07;;;;;;;;;;6204582;28;20077;-74
2021/01/31 16:35:59;;;;;;;12.95;9.23;;;;;;;;;;6195677;28;20053;-73
2021/01/31 16:39:00;;;;;;;11.93;7.90;;;;;;;;;;6205515;28;20068;-73
2021/01/31 16:42:01;;;;;;;44.88;28.65;;;;;;;;;;6208194;28;20060;-71
2021/01/31 16:45:03;;;;;;;80.30;49.50;;;;;;;;;;6213840;28;20052;-72
2021/01/31 16:48:05;;;;;;;13.57;8.15;;;;;;;;;;6201537;28;20058;-72
2021/01/31 16:51:07;;;;;;;11.65;7.93;;;;;;;;;;6195082;28;20401;-72
2021/01/31 16:54:09;;;;;;;11.18;8.85;;;;;;;;;;6194998;28;20416;-73
2021/01/31 16:57:10;;;;;;;13.55;10.10;;;;;;;;;;6197156;28;20057;-72
2021/01/31 17:00:14;;;;;;;13.10;10.10;;;;;;;;;;6210976;28;20053;-73
2021/01/31 17:03:16;;;;;;;14.68;11.00;;;;;;;;;;6198937;28;20058;-72
2021/01/31 17:06:17;;;;;;;15.05;10.30;;;;;;;;;;6200244;28;20070;-73
2021/01/31 17:09:18;;;;;;;14.65;8.73;;;;;;;;;;6208148;28;20091;-73
2021/01/31 17:12:19;;;;;;;17.50;10.52;;;;;;;;;;6196156;28;20054;-73
2021/01/31 17:15:23;;;;;;;16.58;11.98;;;;;;;;;;6189238;28;20046;-73
2021/01/31 17:18:24;;;;;;;15.80;11.40;;;;;;;;;;6197612;28;20060;-73
2021/01/31 17:21:25;;;;;;;14.82;11.45;;;;;;;;;;6209944;28;20125;-73
2021/01/31 17:24:27;;;;;;;15.13;11.90;;;;;;;;;;6202891;28;20058;-72
2021/01/31 17:27:28;;;;;;;15.75;11.30;;;;;;;;;;6201652;28;20050;-73
2021/01/31 17:30:30;;;;;;;17.33;12.45;;;;;;;;;;6199667;28;20046;-74
2021/01/31 17:33:31;;;;;;;17.42;12.85;;;;;;;;;;6197054;28;20125;-73
2021/01/31 17:36:32;;;;;;;18.95;13.32;;;;;;;;;;6201110;28;20049;-72
2021/01/31 17:39:34;;;;;;;18.83;13.63;;;;;;;;;;6200513;28;20060;-73
2021/01/31 17:42:36;;;;;;;19.95;14.05;;;;;;;;;;6196415;28;20462;-73
2021/01/31 17:45:37;;;;;;;21.25;14.40;;;;;;;;;;6197863;28;20129;-73
2021/01/31 17:48:38;;;;;;;21.02;14.50;;;;;;;;;;6204051;28;20400;-74
2021/01/31 17:51:40;;;;;;;20.85;14.40;;;;;;;;;;6209773;28;20092;-73
2021/01/31 17:54:43;;;;;;;19.02;14.20;;;;;;;;;;6202299;28;20053;-73
2021/01/31 17:57:47;;;;;;;19.60;13.82;;;;;;;;;;6200343;28;20050;-73